This is the latest recevied weather packets stored in our database for station/object AA8FM-13. If no packets are shown the sender has not sent any weather packets the latest 10 day(s).
| Time | Temp. | Humidity | Pressure | Rain* | Wind** | Luminosity | Snow |
|---|---|---|---|---|---|---|---|
| 1777911136 | 18.33° C | 56% | 1009.4 hPa | 0 mm | - | 204 W/m² | - |
| 1777910834 | 18.89° C | 55% | 1009.4 hPa | 0 mm | - | 286 W/m² | - |
| 1777910530 | 19.44° C | 53% | 1009.3 hPa | 0 mm | - | 247 W/m² | - |
| 1777910227 | 19.44° C | 54% | 1009.6 hPa | 0 mm | - | 383 W/m² | - |
| 1777909924 | 19.44° C | 53% | 1009.4 hPa | 0 mm | - | 286 W/m² | - |
| 1777909621 | 18.33° C | 54% | 1009.4 hPa | 0 mm | - | 766 W/m² | - |
| 1777909318 | 18.33° C | 54% | 1009.5 hPa | 0 mm | - | 426 W/m² | - |
| 1777909016 | 20° C | 52% | 1009.6 hPa | 0 mm | - | 319 W/m² | - |
| 1777908714 | 19.44° C | 51% | 1009.5 hPa | 0 mm | - | 573 W/m² | - |
| 1777908410 | 18.33° C | 53% | 1009.7 hPa | 0 mm | - | 287 W/m² | - |
| 1777908107 | 18.33° C | 53% | 1009.9 hPa | 0 mm | - | 579 W/m² | - |
| 1777907803 | 18.89° C | 51% | 1009.6 hPa | 0 mm | - | 576 W/m² | - |
| 1777907498 | 18.89° C | 54% | 1009.9 hPa | 0 mm | - | 540 W/m² | - |
| 1777907196 | 18.33° C | 54% | 1009.6 hPa | 0 mm | - | 575 W/m² | - |
| 1777906892 | 18.33° C | 52% | 1010.1 hPa | 0 mm | - | 592 W/m² | - |
| 1777906590 | 17.78° C | 52% | 1009.9 hPa | 0 mm | - | 554 W/m² | - |
| 1777906285 | 17.78° C | 53% | 1010 hPa | 0 mm | - | 612 W/m² | - |
| 1777905982 | 18.33° C | 51% | 1009.7 hPa | 0 mm | - | 496 W/m² | - |
| 1777905679 | 17.78° C | 54% | 1009.7 hPa | 0 mm | - | 516 W/m² | - |
| 1777905375 | 17.78° C | 53% | 1010.1 hPa | 0 mm | - | 502 W/m² | - |
| 1777905073 | 18.33° C | 52% | 1010 hPa | 0 mm | - | 489 W/m² | - |
| 1777904771 | 17.78° C | 53% | 1009.9 hPa | 0 mm | - | 482 W/m² | - |
| 1777904467 | 17.22° C | 52% | 1009.6 hPa | 0 mm | - | 467 W/m² | - |
| 1777904164 | 16.67° C | 53% | 1010.1 hPa | 0 mm | - | 457 W/m² | - |
| 1777903861 | 16.67° C | 54% | 1010.1 hPa | 0 mm | - | 450 W/m² | - |
* Rain latest hour (hover to see other rain measurements)
** Current wind speed in m/s (hover to see current wind gust speed)